Desoto, TX (75115)

5:29 PM CST on February 12, 2016 (GMT -0600)
North Meadows | | Change Station
CLOSE
Current Station
Personal Weather Station
Location: DeSoto, TX
Elevation: 633 ft
Nearby Weather Stations
Active Advisory: Flood Warning

Elev 633 ft 32.61 °N, 96.83 °W | Updated 12 minutes ago

Clear
Clear
69.1 °F
Feels Like 69.1 °F
N
2.7
Wind Variable Wind from East

Today
High -- | Low -- °F
--% Chance of Precip.
Yesterday
High -- | Low -- °F
Precip. -- in
Pressure 30.25 in
Visibility 10.0 miles
Clouds Clear
Dew Point 40 °F
Humidity 34%
Rainfall 0.00 in
Snow Depth Not available.
7:13 AM 6:10 PM
Waxing Crescent, 24% visible
METAR KRBD 122253Z 03011KT 10SM CLR 20/01 A3026 RMK AO2 SLP243 T02000011
Pressure 30.25 in
Visibility 10.0 miles
Clouds Clear
Dew Point 40 °F
Humidity 34%
Rainfall 0.00 in
Snow Depth Not available.
7:13 AM 6:10 PM
Waxing Crescent, 24% visible
METAR KRBD 122253Z 03011KT 10SM CLR 20/01 A3026 RMK AO2 SLP243 T02000011

10-Day Weather Forecast

Almanac

Astronomy

Feb. 12, 2016 Rise Set
Actual Time
Civil Twilight
Nautical Twilight
Astronomical Twilight
Moon
Length of Visible Light
Length of Day
Tomorrow will be .
, % of the Moon is Illuminated

Today's Extremes

State Highs State Lows

Community

WunderPhotos

Upload Photos

1,892,436 photos uploaded!

WunderBlog® & News

Nearby

Air Quality

  Air Quality AQ Index Pollutant
Not available.

Snow Depth

Station Depth Elevation

Earthquake Activity

City Distance Mag. Time & Date
Minimum magnitude displayed is 2.5.

Coastal Water Temperatures

Place Temperature

Stations

Nearby Weather Stations

Station Location Temp. Windchill Dew Point Humidity Wind Precip. Elev Updated Type
                   

Watches & Warnings

Flood Warning
Issued: 7:51 AM CST Feb. 12, 2016 – National Weather Service

The Flood Warning continues for
the Elm Fork Trinity River near Carrollton.
* At 0715 am Friday the stage was 8.35 feet.
* Flood stage is 8 feet.
* Minor flooding is occurring and minor flooding will continue.
* Forecast... the river will remain near 8 feet for the next few
days.
* At 8 feet, minor flooding will occur downstream from the gauge.


Lat... Lon 3300 9700 3287 9699 3287 9687 3300 9688